createdAt,value
2023-05-09T00:02:03.791Z,20.80
2023-05-09T00:04:31.079Z,21.00
2023-05-09T00:06:58.361Z,21.40
2023-05-09T00:09:25.767Z,21.10
2023-05-09T00:11:52.769Z,21.00
2023-05-09T00:14:19.814Z,21.10
2023-05-09T00:16:46.986Z,21.00
2023-05-09T00:19:13.953Z,20.70
2023-05-09T00:21:41.027Z,21.10
2023-05-09T00:24:09.173Z,21.20
2023-05-09T00:26:36.134Z,21.00
2023-05-09T00:29:03.223Z,20.90
2023-05-09T00:31:30.222Z,20.90
2023-05-09T00:33:57.230Z,21.50
2023-05-09T00:36:24.399Z,20.90
2023-05-09T00:38:51.484Z,20.90
2023-05-09T00:41:18.701Z,20.90
2023-05-09T00:43:45.880Z,21.50
2023-05-09T00:46:12.886Z,21.30
2023-05-09T00:48:40.157Z,21.30
2023-05-09T00:51:07.312Z,21.50
2023-05-09T00:53:34.418Z,21.50
2023-05-09T00:56:02.151Z,21.20
2023-05-09T00:58:30.144Z,20.90
2023-05-09T01:00:57.258Z,21.10
2023-05-09T01:03:24.587Z,21.50
2023-05-09T01:06:15.944Z,21.30
2023-05-09T01:09:02.993Z,21.00
2023-05-09T01:11:32.517Z,20.70
2023-05-09T01:14:23.870Z,20.70
2023-05-09T01:16:51.196Z,20.30
2023-05-09T01:19:46.504Z,20.30
2023-05-09T01:22:16.469Z,20.40
2023-05-09T01:25:10.666Z,20.60
2023-05-09T01:27:51.049Z,20.60
2023-05-09T01:30:20.219Z,20.20
2023-05-09T01:32:50.610Z,20.40
2023-05-09T01:35:18.679Z,20.50
2023-05-09T01:37:50.470Z,20.40
2023-05-09T01:40:21.004Z,20.20
2023-05-09T01:43:04.097Z,20.10
2023-05-09T01:45:34.338Z,20.50
2023-05-09T01:48:02.789Z,20.70
2023-05-09T01:50:30.801Z,20.30
2023-05-09T01:53:00.687Z,19.90
2023-05-09T01:55:31.995Z,20.00
2023-05-09T01:57:59.673Z,19.60
2023-05-09T02:00:28.422Z,19.70
2023-05-09T02:02:57.760Z,19.90
2023-05-09T02:05:28.605Z,20.00
2023-05-09T02:08:00.169Z,20.00
2023-05-09T02:10:31.653Z,20.30
2023-05-09T02:12:58.750Z,20.20
2023-05-09T02:15:26.494Z,20.30
2023-05-09T02:17:53.735Z,20.50
2023-05-09T02:20:20.882Z,20.60
2023-05-09T02:22:48.539Z,20.50
2023-05-09T02:25:16.279Z,20.60
2023-05-09T02:27:47.470Z,20.30
2023-05-09T02:30:25.571Z,20.40
2023-05-09T02:33:01.251Z,20.20
2023-05-09T02:35:29.095Z,20.50
2023-05-09T02:37:58.177Z,20.50
2023-05-09T02:40:28.303Z,20.40
2023-05-09T02:42:55.800Z,20.00
2023-05-09T02:45:22.948Z,20.40
2023-05-09T02:47:50.123Z,20.30
2023-05-09T02:50:17.418Z,20.10
2023-05-09T02:52:44.435Z,20.60
2023-05-09T02:55:11.747Z,20.60
2023-05-09T02:57:38.908Z,20.60
2023-05-09T03:00:12.495Z,20.40
2023-05-09T03:02:39.897Z,20.30
2023-05-09T03:05:07.991Z,20.20
2023-05-09T03:07:35.565Z,20.30
2023-05-09T03:10:04.614Z,20.20
2023-05-09T03:12:31.646Z,20.30
2023-05-09T03:14:58.690Z,20.10
2023-05-09T03:17:25.884Z,20.10
2023-05-09T03:19:52.945Z,19.80
2023-05-09T03:22:20.090Z,19.60
2023-05-09T03:24:47.111Z,19.70
2023-05-09T03:27:14.203Z,19.70
2023-05-09T03:29:41.262Z,19.60
2023-05-09T03:32:09.349Z,19.40
2023-05-09T03:34:36.518Z,19.40
2023-05-09T03:37:03.499Z,19.40
2023-05-09T03:39:32.959Z,19.60
2023-05-09T03:41:59.915Z,19.60
2023-05-09T03:44:27.071Z,19.70
2023-05-09T03:46:54.504Z,19.90
2023-05-09T03:49:21.563Z,19.70
2023-05-09T03:51:49.008Z,19.80
2023-05-09T03:54:16.115Z,19.70
2023-05-09T03:56:43.215Z,19.80
2023-05-09T03:59:10.410Z,19.70
2023-05-09T04:01:40.027Z,20.00
2023-05-09T04:04:07.528Z,20.00
2023-05-09T04:06:35.959Z,20.00
2023-05-09T04:09:03.015Z,20.30
2023-05-09T04:11:30.162Z,20.20
2023-05-09T04:13:57.242Z,19.90
2023-05-09T04:16:24.877Z,19.70
2023-05-09T04:18:54.257Z,19.90
2023-05-09T04:21:21.344Z,19.80
2023-05-09T04:23:48.357Z,20.20
2023-05-09T04:26:15.895Z,20.20
2023-05-09T04:28:43.011Z,20.40
2023-05-09T04:31:10.409Z,20.40
2023-05-09T04:33:39.648Z,20.60
2023-05-09T04:36:07.510Z,20.70
2023-05-09T04:38:38.681Z,20.60
2023-05-09T04:41:06.014Z,20.50
2023-05-09T04:43:34.940Z,20.60
2023-05-09T04:46:02.683Z,20.80
2023-05-09T04:48:29.982Z,20.60
2023-05-09T04:50:57.017Z,20.50
2023-05-09T04:53:23.989Z,20.20
2023-05-09T04:55:52.266Z,20.10
2023-05-09T04:58:19.388Z,20.20
2023-05-09T05:00:46.850Z,20.30
2023-05-09T05:03:13.856Z,20.00
2023-05-09T05:05:41.815Z,20.30
2023-05-09T05:08:09.033Z,20.00
2023-05-09T05:10:36.077Z,20.00
2023-05-09T05:13:03.406Z,19.60
2023-05-09T05:15:30.495Z,20.10
2023-05-09T05:17:57.573Z,19.60
2023-05-09T05:20:24.632Z,19.70
2023-05-09T05:22:51.763Z,19.90
2023-05-09T05:25:18.696Z,19.70
2023-05-09T05:27:45.936Z,20.40
2023-05-09T05:30:15.575Z,20.00
2023-05-09T05:32:43.821Z,19.90
2023-05-09T05:35:14.376Z,20.80
2023-05-09T05:37:42.178Z,20.00
2023-05-09T05:40:09.868Z,19.80
2023-05-09T05:42:37.086Z,19.70
2023-05-09T05:45:07.282Z,20.00
2023-05-09T05:47:35.635Z,19.70
2023-05-09T05:50:07.049Z,20.10
2023-05-09T05:52:34.534Z,20.20
2023-05-09T05:55:01.652Z,20.00
2023-05-09T05:57:28.738Z,20.10
2023-05-09T05:59:55.713Z,20.10
2023-05-09T06:02:22.757Z,19.90
2023-05-09T06:04:49.908Z,20.00
2023-05-09T06:07:18.806Z,20.00
2023-05-09T06:09:45.833Z,19.90
2023-05-09T06:12:16.582Z,20.30
2023-05-09T06:14:44.018Z,20.30
2023-05-09T06:17:13.647Z,20.00
2023-05-09T06:19:41.290Z,19.70
2023-05-09T06:22:08.381Z,20.20
2023-05-09T06:24:36.516Z,20.30
2023-05-09T06:27:04.407Z,19.90
2023-05-09T06:29:31.538Z,19.70
2023-05-09T06:31:58.628Z,19.50
2023-05-09T06:34:26.378Z,19.50
2023-05-09T06:36:53.354Z,19.70
2023-05-09T06:39:20.621Z,19.10
2023-05-09T06:41:47.618Z,19.30
2023-05-09T06:44:14.880Z,18.90
2023-05-09T06:46:42.133Z,18.50
2023-05-09T06:49:11.049Z,18.50
2023-05-09T06:51:38.155Z,18.80
2023-05-09T06:54:05.364Z,18.60
2023-05-09T06:56:33.836Z,18.40
2023-05-09T06:59:02.403Z,18.50
2023-05-09T07:01:29.373Z,18.60
2023-05-09T07:03:56.457Z,18.10
2023-05-09T07:06:23.565Z,18.50
2023-05-09T07:08:50.943Z,18.40
2023-05-09T07:11:17.970Z,18.00
2023-05-09T07:13:45.047Z,17.80
2023-05-09T07:16:12.363Z,17.90
2023-05-09T07:18:39.398Z,18.10
2023-05-09T07:21:06.586Z,18.80
2023-05-09T07:23:33.648Z,18.50
2023-05-09T07:26:01.579Z,18.40
2023-05-09T07:28:28.688Z,17.60
2023-05-09T07:30:57.156Z,17.40
2023-05-09T07:33:24.257Z,17.30
2023-05-09T07:35:53.722Z,17.40
2023-05-09T07:38:21.747Z,17.00
2023-05-09T07:40:48.919Z,17.00
2023-05-09T07:43:19.406Z,16.50
2023-05-09T07:45:49.535Z,16.10
2023-05-09T07:48:20.554Z,16.40
2023-05-09T07:50:49.107Z,16.60
2023-05-09T07:53:16.186Z,17.20
2023-05-09T07:55:50.095Z,17.10
2023-05-09T07:58:17.976Z,17.10
2023-05-09T08:00:45.230Z,17.40
2023-05-09T08:03:12.822Z,17.00
2023-05-09T08:05:40.394Z,16.70
2023-05-09T08:08:10.441Z,16.60
2023-05-09T08:10:37.424Z,16.30
2023-05-09T08:13:05.659Z,16.20
2023-05-09T08:15:32.783Z,16.20
2023-05-09T08:18:01.034Z,15.90
2023-05-09T08:20:28.317Z,16.20
2023-05-09T08:22:59.191Z,16.10
2023-05-09T08:25:26.294Z,16.50
2023-05-09T08:27:53.476Z,16.40
2023-05-09T08:30:21.747Z,16.50
2023-05-09T08:32:49.185Z,16.10
2023-05-09T08:35:19.172Z,16.10
2023-05-09T08:37:47.981Z,15.70
2023-05-09T08:40:15.403Z,15.90
2023-05-09T08:42:45.677Z,15.90
2023-05-09T08:45:16.770Z,15.90
2023-05-09T08:47:46.065Z,15.60
2023-05-09T08:50:15.578Z,15.80
2023-05-09T08:52:43.166Z,15.60
2023-05-09T08:55:11.315Z,15.00
2023-05-09T08:57:38.543Z,15.00
2023-05-09T09:00:06.636Z,15.40
2023-05-09T09:02:37.818Z,15.50
2023-05-09T09:07:38.382Z,16.10
2023-05-09T09:10:07.831Z,15.20
2023-05-09T09:12:35.796Z,15.40
2023-05-09T09:15:06.080Z,15.40
2023-05-09T09:17:37.866Z,15.50
2023-05-09T09:20:09.181Z,15.60
2023-05-09T09:22:38.147Z,15.30
2023-05-09T09:25:05.532Z,15.20
2023-05-09T09:27:32.665Z,14.90
2023-05-09T09:30:13.426Z,15.50
2023-05-09T09:32:41.367Z,14.90
2023-05-09T09:35:10.858Z,14.90
2023-05-09T09:37:45.456Z,14.80
2023-05-09T09:40:14.587Z,13.90
2023-05-09T09:42:43.169Z,15.30
2023-05-09T09:45:16.752Z,15.00
2023-05-09T09:47:45.444Z,15.10
2023-05-09T09:50:18.094Z,15.40
2023-05-09T09:52:56.171Z,15.20
2023-05-09T09:55:24.827Z,15.30
2023-05-09T09:57:52.869Z,15.20
2023-05-09T10:00:30.448Z,15.20
2023-05-09T10:02:59.600Z,15.60
2023-05-09T10:05:31.517Z,15.60
2023-05-09T10:08:00.703Z,15.10
2023-05-09T10:10:35.570Z,15.70
2023-05-09T10:13:05.152Z,15.90
2023-05-09T10:15:41.340Z,15.80
2023-05-09T10:18:20.308Z,14.90
2023-05-09T10:20:48.148Z,15.30
2023-05-09T10:23:18.339Z,15.20
2023-05-09T10:25:49.698Z,15.00
2023-05-09T10:28:22.706Z,14.50
2023-05-09T10:31:19.333Z,15.10
2023-05-09T10:33:52.085Z,14.90
2023-05-09T10:36:22.066Z,15.10
2023-05-09T10:38:49.952Z,15.70
2023-05-09T10:41:18.940Z,15.00
2023-05-09T10:43:46.693Z,15.00
2023-05-09T10:46:14.645Z,14.80
2023-05-09T10:48:43.144Z,14.80
2023-05-09T10:51:12.059Z,14.90
2023-05-09T10:53:50.653Z,15.10
2023-05-09T10:56:32.528Z,14.60
2023-05-09T10:59:03.839Z,14.80
2023-05-09T11:01:39.421Z,14.70
2023-05-09T11:04:17.008Z,15.00
2023-05-09T11:06:52.368Z,15.30
2023-05-09T11:09:29.631Z,15.20
2023-05-09T11:11:59.974Z,15.40
2023-05-09T11:14:52.142Z,15.90
2023-05-09T11:17:22.529Z,15.40
2023-05-09T11:19:50.070Z,14.60
2023-05-09T11:22:22.020Z,14.70
2023-05-09T11:24:54.241Z,15.20
2023-05-09T11:27:24.222Z,15.50
2023-05-09T11:29:53.874Z,15.30
2023-05-09T11:32:31.073Z,14.90
2023-05-09T11:35:12.565Z,14.60
2023-05-09T11:37:50.981Z,14.50
2023-05-09T11:40:20.157Z,14.50
2023-05-09T11:42:50.177Z,14.50
2023-05-09T11:45:19.143Z,14.40
2023-05-09T11:47:47.764Z,15.20
2023-05-09T11:50:17.326Z,15.60
2023-05-09T11:52:44.480Z,15.30
2023-05-09T11:55:19.900Z,14.90
2023-05-09T11:57:49.263Z,15.10
2023-05-09T12:00:18.059Z,14.60
2023-05-09T12:02:46.794Z,14.80
2023-05-09T12:05:17.770Z,14.50
2023-05-09T12:07:45.861Z,14.30
2023-05-09T12:10:17.198Z,14.30
2023-05-09T12:12:48.251Z,14.10
2023-05-09T12:15:17.097Z,14.40
2023-05-09T12:17:47.128Z,14.70
2023-05-09T12:20:15.542Z,15.10
2023-05-09T12:22:53.741Z,14.50
2023-05-09T12:25:22.408Z,14.70
2023-05-09T12:27:49.714Z,14.10
2023-05-09T12:30:18.731Z,14.20
2023-05-09T12:32:47.125Z,14.10
2023-05-09T12:35:14.870Z,14.80
2023-05-09T12:38:04.097Z,14.90
2023-05-09T12:40:31.640Z,14.50
2023-05-09T12:43:01.051Z,14.80
2023-05-09T12:45:29.185Z,14.90
2023-05-09T12:47:57.635Z,15.00
2023-05-09T12:50:35.202Z,14.70
2023-05-09T12:53:04.504Z,14.40
2023-05-09T12:55:32.951Z,14.90
2023-05-09T12:58:03.864Z,15.00
2023-05-09T13:00:43.741Z,14.70
2023-05-09T13:03:25.570Z,14.90
2023-05-09T13:06:01.321Z,14.70
2023-05-09T13:08:30.346Z,14.40
2023-05-09T13:11:11.995Z,14.40
2023-05-09T13:13:42.877Z,14.60
2023-05-09T13:16:11.217Z,14.50
2023-05-09T13:18:39.747Z,13.90
2023-05-09T13:21:07.214Z,14.60
2023-05-09T13:23:34.280Z,14.70
2023-05-09T13:26:01.418Z,14.40
2023-05-09T13:28:28.496Z,14.50
2023-05-09T13:30:55.579Z,15.00
2023-05-09T13:33:26.370Z,15.10
2023-05-09T13:35:54.272Z,15.10
2023-05-09T13:38:21.323Z,14.40
2023-05-09T13:40:48.653Z,14.40
2023-05-09T13:43:17.561Z,14.90
2023-05-09T13:45:44.666Z,14.80
2023-05-09T13:48:12.346Z,14.70
2023-05-09T13:50:39.598Z,14.90
2023-05-09T13:53:06.559Z,15.00
2023-05-09T13:55:34.594Z,15.00
2023-05-09T13:58:01.806Z,15.50
2023-05-09T14:00:28.893Z,15.20
2023-05-09T14:02:56.025Z,15.70
2023-05-09T14:05:23.559Z,15.80
2023-05-09T14:07:52.236Z,15.80
2023-05-09T14:10:19.567Z,14.70
2023-05-09T14:12:47.640Z,14.70
2023-05-09T14:15:14.750Z,15.20
2023-05-09T14:17:43.662Z,15.10
2023-05-09T14:20:11.450Z,15.30
2023-05-09T14:22:38.448Z,15.30
2023-05-09T14:25:06.247Z,15.40
2023-05-09T14:27:37.307Z,15.60
2023-05-09T14:30:05.043Z,14.90
2023-05-09T14:32:32.854Z,14.50
2023-05-09T14:35:01.362Z,14.50
2023-05-09T14:37:29.958Z,14.80
2023-05-09T14:39:57.267Z,14.10
2023-05-09T14:42:24.377Z,14.60
2023-05-09T14:44:51.395Z,15.30
2023-05-09T14:47:18.383Z,15.50
2023-05-09T14:49:48.360Z,15.50
2023-05-09T14:52:15.457Z,15.00
2023-05-09T14:54:42.460Z,15.40
2023-05-09T14:57:09.843Z,15.50
2023-05-09T14:59:37.592Z,16.10
2023-05-09T15:02:04.775Z,15.80
2023-05-09T15:04:33.333Z,15.90
2023-05-09T15:07:00.867Z,15.80
2023-05-09T15:09:29.238Z,15.80
2023-05-09T15:11:56.910Z,15.50
2023-05-09T15:14:25.696Z,15.70
2023-05-09T15:16:55.256Z,16.00
2023-05-09T15:19:22.568Z,16.00
2023-05-09T15:21:49.727Z,16.70
2023-05-09T15:24:17.195Z,16.60
2023-05-09T15:26:44.316Z,16.50
2023-05-09T15:29:11.412Z,16.50
2023-05-09T15:31:44.289Z,16.80
2023-05-09T15:34:11.376Z,16.20
2023-05-09T15:36:38.504Z,16.50
2023-05-09T15:39:05.545Z,16.60
2023-05-09T15:41:32.561Z,17.00
2023-05-09T15:43:59.585Z,17.10
2023-05-09T15:46:26.663Z,16.70
2023-05-09T15:48:56.028Z,16.00
2023-05-09T15:51:23.285Z,16.30
2023-05-09T15:53:50.417Z,16.50
2023-05-09T15:56:17.577Z,16.30
2023-05-09T15:58:44.852Z,16.30
2023-05-09T16:01:13.461Z,16.10
2023-05-09T16:03:41.180Z,16.50
2023-05-09T16:06:08.421Z,16.50
2023-05-09T16:08:35.604Z,17.10
2023-05-09T16:11:03.458Z,17.00
2023-05-09T16:13:31.487Z,17.20
2023-05-09T16:15:59.506Z,16.90
2023-05-09T16:18:27.364Z,16.80
2023-05-09T16:20:57.016Z,16.70
2023-05-09T16:23:24.579Z,16.90
2023-05-09T16:25:51.629Z,17.30
2023-05-09T16:28:19.617Z,17.30
2023-05-09T16:30:46.700Z,17.20
2023-05-09T16:33:13.833Z,17.20
2023-05-09T16:35:42.257Z,17.10
2023-05-09T16:38:09.635Z,16.90
2023-05-09T16:40:36.955Z,17.00
2023-05-09T16:43:04.280Z,17.30
2023-05-09T16:45:32.462Z,17.20
2023-05-09T16:48:01.958Z,17.80
2023-05-09T16:50:29.614Z,17.10
2023-05-09T16:52:56.640Z,17.30
2023-05-09T16:55:23.632Z,17.10
2023-05-09T16:57:50.743Z,17.10
2023-05-09T17:00:18.378Z,17.00
2023-05-09T17:02:46.048Z,17.00
2023-05-09T17:05:13.171Z,17.20
2023-05-09T17:07:40.358Z,17.60
2023-05-09T17:10:07.892Z,17.30
2023-05-09T17:12:35.338Z,17.60
2023-05-09T17:15:02.471Z,17.30
2023-05-09T17:17:29.645Z,17.30
2023-05-09T17:19:58.342Z,17.20
2023-05-09T17:22:25.494Z,17.00
2023-05-09T17:24:52.594Z,17.10
2023-05-09T17:27:19.637Z,17.00
2023-05-09T17:29:47.414Z,17.80
2023-05-09T17:32:15.635Z,17.00
2023-05-09T17:34:42.710Z,17.00
2023-05-09T17:37:09.790Z,16.90
2023-05-09T17:39:38.301Z,17.20
2023-05-09T17:42:10.333Z,17.80
2023-05-09T17:44:43.694Z,17.60
2023-05-09T17:47:12.750Z,17.80
2023-05-09T17:49:41.477Z,17.50
2023-05-09T17:52:08.591Z,17.50
2023-05-09T17:54:37.438Z,17.50
2023-05-09T17:57:06.038Z,17.80
2023-05-09T17:59:33.163Z,17.90
2023-05-09T18:02:00.411Z,18.00
2023-05-09T18:04:30.428Z,17.70
2023-05-09T18:06:57.567Z,17.90
2023-05-09T18:09:26.490Z,17.80
2023-05-09T18:11:53.440Z,17.90
2023-05-09T18:14:22.927Z,17.60
2023-05-09T18:16:50.380Z,17.90
2023-05-09T18:19:17.571Z,17.80
2023-05-09T18:21:44.632Z,17.80
2023-05-09T18:24:11.660Z,17.60
2023-05-09T18:26:38.636Z,17.60
2023-05-09T18:29:05.779Z,17.80
2023-05-09T18:31:39.128Z,18.10
2023-05-09T18:34:06.480Z,17.80
2023-05-09T18:36:33.843Z,18.00
2023-05-09T18:39:00.849Z,17.80
2023-05-09T18:41:29.254Z,17.60
2023-05-09T18:43:58.344Z,17.80
2023-05-09T18:46:27.964Z,17.80
2023-05-09T18:48:55.219Z,17.50
2023-05-09T18:51:22.243Z,17.90
2023-05-09T18:53:49.505Z,18.00
2023-05-09T18:56:20.492Z,17.90
2023-05-09T18:58:48.886Z,17.70
2023-05-09T19:01:16.705Z,17.80
2023-05-09T19:03:46.431Z,17.60
2023-05-09T19:06:15.236Z,17.70
2023-05-09T19:08:44.958Z,17.50
2023-05-09T19:11:12.585Z,17.50
2023-05-09T19:13:41.002Z,17.40
2023-05-09T19:16:09.863Z,17.30
2023-05-09T19:18:37.617Z,17.50
2023-05-09T19:21:04.857Z,17.60
2023-05-09T19:23:32.286Z,17.40
2023-05-09T19:25:59.525Z,17.20
2023-05-09T19:28:27.138Z,17.50
2023-05-09T19:30:57.600Z,17.30
2023-05-09T19:33:25.208Z,17.70
2023-05-09T19:35:52.351Z,17.90
2023-05-09T19:38:20.665Z,17.80
2023-05-09T19:40:47.622Z,18.10
2023-05-09T19:43:14.627Z,18.10
2023-05-09T19:45:41.624Z,18.10
2023-05-09T19:48:15.220Z,18.40
2023-05-09T19:50:43.486Z,18.20
2023-05-09T19:53:10.792Z,18.00
2023-05-09T19:55:38.151Z,18.30
2023-05-09T19:58:05.201Z,18.20
2023-05-09T20:00:32.518Z,18.40
2023-05-09T20:02:59.773Z,18.30
2023-05-09T20:05:27.666Z,18.50
2023-05-09T20:07:55.701Z,18.50
2023-05-09T20:10:22.895Z,18.60
2023-05-09T20:12:50.127Z,18.40
2023-05-09T20:15:17.339Z,18.60
2023-05-09T20:17:45.111Z,18.50
2023-05-09T20:20:12.924Z,18.30
2023-05-09T20:22:39.940Z,18.40
2023-05-09T20:25:08.345Z,18.40
2023-05-09T20:27:37.425Z,18.90
2023-05-09T20:30:05.077Z,18.90
2023-05-09T20:32:35.115Z,19.00
2023-05-09T20:35:02.812Z,19.30
2023-05-09T20:37:30.129Z,19.30
2023-05-09T20:39:57.480Z,19.30
2023-05-09T20:42:27.209Z,19.40
2023-05-09T20:44:58.302Z,19.20
2023-05-09T20:47:25.496Z,18.90
2023-05-09T20:49:56.247Z,18.80
2023-05-09T20:52:25.285Z,18.60
2023-05-09T20:54:52.405Z,18.60
2023-05-09T20:57:19.552Z,18.40
2023-05-09T20:59:46.628Z,18.60
2023-05-09T21:02:13.757Z,18.40
2023-05-09T21:04:40.922Z,18.70
2023-05-09T21:07:10.746Z,18.70
2023-05-09T21:09:37.931Z,18.50
2023-05-09T21:12:05.253Z,18.60
2023-05-09T21:14:32.505Z,18.60
2023-05-09T21:16:59.699Z,18.40
2023-05-09T21:19:27.724Z,18.70
2023-05-09T21:21:55.663Z,19.10
2023-05-09T21:24:22.712Z,18.90
2023-05-09T21:26:50.787Z,19.20
2023-05-09T21:29:17.932Z,19.40
2023-05-09T21:31:44.999Z,19.40
2023-05-09T21:34:13.359Z,19.50
2023-05-09T21:36:41.278Z,19.40
2023-05-09T21:39:09.801Z,19.60
2023-05-09T21:41:38.618Z,19.90
2023-05-09T21:44:07.983Z,19.90
2023-05-09T21:46:36.035Z,19.50
2023-05-09T21:49:03.599Z,19.70
2023-05-09T21:51:31.748Z,20.00
2023-05-09T21:53:59.083Z,20.10
2023-05-09T21:56:26.354Z,19.90
2023-05-09T21:58:53.407Z,19.80
2023-05-09T22:01:20.530Z,19.90
2023-05-09T22:03:47.782Z,19.60
2023-05-09T22:06:14.908Z,19.70
2023-05-09T22:08:41.990Z,19.80
2023-05-09T22:11:09.230Z,19.90
2023-05-09T22:13:36.516Z,20.60
2023-05-09T22:16:04.193Z,20.30
2023-05-09T22:18:31.830Z,20.60
2023-05-09T22:20:59.619Z,20.80
2023-05-09T22:23:27.461Z,20.70
2023-05-09T22:25:54.470Z,20.50
2023-05-09T22:28:21.826Z,20.70
2023-05-09T22:30:48.842Z,21.10
2023-05-09T22:33:15.885Z,20.60
2023-05-09T22:35:42.965Z,20.70
2023-05-09T22:38:10.116Z,20.30
2023-05-09T22:40:37.346Z,20.40
2023-05-09T22:43:04.800Z,20.20
2023-05-09T22:45:31.891Z,20.50
2023-05-09T22:47:59.147Z,20.00
2023-05-09T22:50:26.277Z,20.20
2023-05-09T22:52:53.473Z,20.00
2023-05-09T22:55:20.508Z,19.80
2023-05-09T22:57:47.608Z,20.20
2023-05-09T23:00:15.699Z,20.30
2023-05-09T23:02:43.072Z,20.10
2023-05-09T23:05:10.325Z,20.50
2023-05-09T23:07:37.632Z,20.40
2023-05-09T23:10:05.178Z,20.40
2023-05-09T23:12:32.219Z,20.50
2023-05-09T23:14:59.399Z,20.30
2023-05-09T23:17:26.469Z,20.30
2023-05-09T23:19:53.584Z,20.40
2023-05-09T23:22:20.631Z,20.70
2023-05-09T23:24:47.748Z,20.30
2023-05-09T23:27:15.007Z,20.40
2023-05-09T23:29:42.121Z,20.20
2023-05-09T23:32:09.187Z,20.10
2023-05-09T23:34:36.749Z,19.90
2023-05-09T23:37:04.736Z,19.70
2023-05-09T23:39:32.457Z,19.50
2023-05-09T23:41:59.504Z,20.00
2023-05-09T23:44:26.666Z,19.90
2023-05-09T23:46:53.763Z,19.70
2023-05-09T23:49:20.939Z,19.80
2023-05-09T23:51:48.029Z,20.60
2023-05-09T23:54:16.618Z,19.90
2023-05-09T23:56:43.834Z,19.40
2023-05-09T23:59:10.887Z,19.80
